Time;durP1;ratioP1;P1;durP2;ratioP2;P2;SDS_P1;SDS_P2;PMS_P1;PMS_P2;Temp;Humidity;BMP_temperature;BMP_pressure;BME280_temperature;BME280_humidity;BME280_pressure;Samples;Min_cycle;Max_cycle;Signal;HPM_P1;HPM_P2
2023/01/11 00:01:49;;;;;;;2.07;1.40;;;;;;;7.97;67.77;98875.09;4942621;28;102613;-61
2023/01/11 00:04:17;;;;;;;3.50;1.20;;;;;;;8.02;67.56;98873.03;4943643;28;103038;-62
2023/01/11 00:06:46;;;;;;;1.73;1.00;;;;;;;7.97;68.23;98878.56;4936296;28;103271;-60
2023/01/11 00:09:16;;;;;;;3.10;1.27;;;;;;;8.06;68.02;98875.38;4941913;28;103350;-60
2023/01/11 00:11:46;;;;;;;3.87;1.87;;;;;;;8.01;68.23;98873.97;4927077;28;102795;-60
2023/01/11 00:14:18;;;;;;;2.07;1.17;;;;;;;8.18;67.99;98865.91;4944946;28;103812;-60
2023/01/11 00:16:46;;;;;;;2.83;1.47;;;;;;;8.14;68.24;98864.38;4939383;28;103613;-62
2023/01/11 00:19:14;;;;;;;4.63;1.50;;;;;;;8.16;68.88;98857.28;4949622;28;103215;-60
2023/01/11 00:21:45;;;;;;;2.93;1.17;;;;;;;8.11;68.93;98867.22;4937033;28;102712;-60
2023/01/11 00:24:16;;;;;;;1.23;0.97;;;;;;;8.15;68.94;98868.72;4941891;28;102688;-60
2023/01/11 00:26:54;;;;;;;2.07;1.03;;;;;;;8.35;68.47;98860.53;4932752;28;103076;-60
2023/01/11 00:29:22;;;;;;;3.27;1.40;;;;;;;8.17;69.18;98857.16;4940843;28;104049;-62
2023/01/11 00:31:52;;;;;;;2.50;1.10;;;;;;;8.22;69.27;98843.75;4942080;28;102683;-62
2023/01/11 00:34:20;;;;;;;1.67;0.90;;;;;;;8.22;69.33;98849.00;4926780;28;102814;-63
2023/01/11 00:36:48;;;;;;;1.10;1.00;;;;;;;8.37;68.90;98841.97;4924791;28;104212;-60
2023/01/11 00:39:18;;;;;;;2.00;0.90;;;;;;;8.31;69.17;98845.84;4949788;28;103537;-60
2023/01/11 00:50:17;;;;;;;0.80;0.70;;;;;;;8.38;69.42;98818.22;4944158;28;103330;-61
2023/01/11 00:52:48;;;;;;;1.23;0.83;;;;;;;8.45;69.56;98814.25;4931460;28;102791;-63
2023/01/11 00:55:17;;;;;;;0.77;0.70;;;;;;;8.36;69.87;98809.56;4945403;28;104168;-63
2023/01/11 00:57:45;;;;;;;2.53;1.00;;;;;;;8.42;69.99;98808.34;4941808;28;103321;-61
2023/01/11 01:00:14;;;;;;;3.63;1.27;;;;;;;8.50;69.88;98811.34;4945070;28;103366;-62
2023/01/11 01:02:42;;;;;;;2.47;0.80;;;;;;;8.40;70.04;98810.19;4927729;28;102699;-62
2023/01/11 01:05:13;;;;;;;2.73;1.00;;;;;;;8.50;69.89;98798.19;4930826;28;102737;-59
2023/01/11 01:07:41;;;;;;;1.40;1.10;;;;;;;8.62;69.52;98800.88;4949173;28;103884;-63
2023/01/11 01:10:21;;;;;;;2.37;0.73;;;;;;;8.63;70.11;98804.34;4929281;28;103092;-60
2023/01/11 01:15:37;;;;;;;1.47;0.97;;;;;;;8.49;70.66;98794.69;4943378;28;103244;-60
2023/01/11 01:18:05;;;;;;;1.37;0.70;;;;;;;8.54;70.48;98797.88;4945653;28;103491;-63
2023/01/11 01:20:34;;;;;;;2.40;0.80;;;;;;;8.46;71.29;98794.88;4936928;28;104310;-60
2023/01/11 01:23:02;;;;;;;1.97;0.90;;;;;;;8.48;71.31;98790.34;4937176;28;102582;-62
2023/01/11 01:25:36;;;;;;;1.50;0.60;;;;;;;8.53;71.34;98788.28;4932913;28;103928;-62
2023/01/11 01:28:11;;;;;;;1.47;0.70;;;;;;;8.54;71.75;98797.03;4932955;28;103203;-60
2023/01/11 01:30:47;;;;;;;2.40;1.00;;;;;;;8.59;71.28;98801.06;4943963;28;103226;-60
2023/01/11 01:33:17;;;;;;;2.37;0.77;;;;;;;8.53;72.14;98805.88;4935444;28;102671;-63
2023/01/11 01:35:45;;;;;;;1.00;0.60;;;;;;;8.54;72.14;98807.56;4913986;28;102858;-60
2023/01/11 01:38:13;;;;;;;2.43;0.70;;;;;;;8.50;72.34;98796.41;4926165;28;103437;-62
2023/01/11 01:40:46;;;;;;;1.90;0.70;;;;;;;8.49;72.67;98793.84;4947519;28;103216;-61
2023/01/11 01:43:43;;;;;;;1.87;0.80;;;;;;;8.57;72.86;98792.44;4937491;28;102705;-60
2023/01/11 01:46:15;;;;;;;1.07;0.63;;;;;;;8.60;72.58;98792.22;4936703;28;103954;-63
2023/01/11 01:48:48;;;;;;;1.03;0.60;;;;;;;8.54;73.01;98792.63;4939918;28;104116;-63
2023/01/11 01:51:21;;;;;;;1.40;0.70;;;;;;;8.55;73.03;98788.19;4947393;28;103387;-63
2023/01/11 01:53:52;;;;;;;2.03;1.00;;;;;;;8.50;73.62;98785.88;4928403;28;102638;-62
2023/01/11 01:56:28;;;;;;;2.10;0.60;;;;;;;8.50;73.68;98783.22;4942544;28;102807;-61
2023/01/11 01:59:06;;;;;;;1.60;0.80;;;;;;;8.53;73.46;98777.75;4936355;28;103335;-60
2023/01/11 02:01:47;;;;;;;2.33;0.70;;;;;;;8.56;73.45;98767.03;4940769;28;103192;-60
2023/01/11 02:04:23;;;;;;;1.40;0.80;;;;;;;8.42;74.09;98772.31;4934687;28;102894;-63
2023/01/11 02:06:58;;;;;;;1.07;0.60;;;;;;;8.55;73.82;98767.97;4936478;28;103994;-60
2023/01/11 02:09:32;;;;;;;2.23;0.80;;;;;;;8.51;74.54;98760.34;4942414;28;103105;-63
2023/01/11 02:12:04;;;;;;;1.50;0.90;;;;;;;8.53;74.24;98751.41;4922763;28;103241;-61
2023/01/11 02:14:34;;;;;;;0.93;0.83;;;;;;;8.47;74.21;98746.56;4945947;28;102713;-60
2023/01/11 02:17:15;;;;;;;2.23;0.93;;;;;;;8.48;74.33;98734.22;4937966;28;102688;-60
2023/01/11 02:19:55;;;;;;;1.63;0.70;;;;;;;8.54;74.72;98742.59;4939860;28;104380;-60
2023/01/11 02:23:00;;;;;;;1.50;0.80;;;;;;;8.63;74.19;98744.63;4939628;28;103275;-60
2023/01/11 02:25:50;;;;;;;1.37;0.80;;;;;;;8.60;74.66;98729.03;4883006;28;102787;-62
2023/01/11 02:28:25;;;;;;;1.20;0.60;;;;;;;8.71;74.33;98731.81;4953129;28;104349;-63
2023/01/11 02:31:11;;;;;;;3.57;1.47;;;;;;;8.76;73.87;98731.50;4939170;28;102945;-60
2023/01/11 02:33:46;;;;;;;0.87;0.73;;;;;;;8.73;74.45;98721.16;4945085;28;103215;-62
2023/01/11 02:36:28;;;;;;;1.97;0.70;;;;;;;8.69;74.79;98712.66;4943185;28;102597;-60
2023/01/11 02:39:01;;;;;;;2.50;0.87;;;;;;;8.60;75.30;98713.22;4943288;28;102801;-60
2023/01/11 02:45:00;;;;;;;1.50;0.57;;;;;;;8.74;74.88;98715.81;4937034;28;103336;-60
2023/01/11 02:47:29;;;;;;;2.73;0.97;;;;;;;8.82;75.09;98722.38;4931306;28;102656;-63
2023/01/11 02:50:05;;;;;;;2.73;0.70;;;;;;;8.81;75.33;98718.91;4937112;28;102826;-60
2023/01/11 02:52:40;;;;;;;2.57;0.60;;;;;;;8.88;75.58;98721.97;4922327;28;104476;-63
2023/01/11 02:55:11;;;;;;;0.93;0.80;;;;;;;8.96;75.73;98717.91;4935909;28;103264;-61
2023/01/11 02:57:41;;;;;;;1.97;0.80;;;;;;;8.93;76.03;98719.88;4941029;28;102792;-60
2023/01/11 03:00:13;;;;;;;0.53;0.53;;;;;;;8.96;76.34;98714.41;4940609;28;102736;-60
2023/01/11 03:02:40;;;;;;;1.83;0.60;;;;;;;8.94;77.06;98705.78;4936490;28;103375;-62
2023/01/11 03:05:13;;;;;;;1.67;0.60;;;;;;;9.05;77.30;98713.81;4936237;28;103334;-63
2023/01/11 03:07:56;;;;;;;0.60;0.50;;;;;;;9.15;76.66;98714.91;4936912;28;102711;-60
2023/01/11 03:10:37;;;;;;;0.93;0.40;;;;;;;9.21;76.70;98703.94;4922514;28;102789;-60
2023/01/11 03:13:15;;;;;;;1.43;0.70;;;;;;;9.20;77.00;98702.28;4922030;28;104800;-60
2023/01/11 03:16:08;;;;;;;0.80;0.57;;;;;;;9.33;76.37;98711.91;4939266;28;103257;-63
2023/01/11 03:18:47;;;;;;;0.50;0.50;;;;;;;9.34;76.68;98710.09;4938954;28;102667;-63
2023/01/11 03:21:28;;;;;;;0.83;0.50;;;;;;;9.34;77.20;98718.00;4948387;28;102688;-63
2023/01/11 03:24:15;;;;;;;1.90;0.50;;;;;;;9.42;76.77;98712.22;4922762;28;102743;-62
2023/01/11 03:26:58;;;;;;;0.80;0.40;;;;;;;9.44;76.60;98705.88;4936348;28;103288;-59
2023/01/11 03:29:32;;;;;;;1.33;0.70;;;;;;;9.43;76.77;98706.81;4946246;28;102681;-61
2023/01/11 03:32:19;;;;;;;1.50;0.50;;;;;;;9.42;76.86;98702.53;4942664;28;103743;-60
2023/01/11 03:35:01;;;;;;;2.00;0.67;;;;;;;9.50;76.59;98700.22;4924097;28;104255;-63
2023/01/11 03:37:40;;;;;;;0.87;0.60;;;;;;;9.49;76.57;98698.50;4952172;28;102900;-60
2023/01/11 03:40:18;;;;;;;1.00;0.60;;;;;;;9.45;76.85;98694.41;4952747;28;102568;-61
2023/01/11 03:43:11;;;;;;;0.70;0.37;;;;;;;9.28;77.88;98700.81;4931288;28;102679;-60
2023/01/11 03:45:45;;;;;;;0.50;0.40;;;;;;;9.45;77.13;98690.91;4946348;28;102956;-62
2023/01/11 03:48:19;;;;;;;0.87;0.50;;;;;;;9.45;77.35;98686.50;4937627;28;103034;-60
2023/01/11 03:50:56;;;;;;;0.73;0.57;;;;;;;9.54;77.24;98680.59;4937034;28;102637;-61
2023/01/11 03:53:30;;;;;;;0.93;0.50;;;;;;;9.47;77.67;98689.84;4923719;28;102751;-60
2023/01/11 03:56:00;;;;;;;0.90;0.60;;;;;;;9.60;77.35;98681.97;4944732;28;103356;-61
2023/01/11 03:58:29;;;;;;;0.50;0.47;;;;;;;9.62;77.20;98678.28;4946394;28;103291;-60
2023/01/11 04:01:14;;;;;;;1.00;0.50;;;;;;;9.61;77.22;98673.94;4945831;28;102559;-61
2023/01/11 04:03:44;;;;;;;1.90;0.50;;;;;;;9.58;77.74;98668.88;4941307;28;102680;-62
2023/01/11 04:06:12;;;;;;;2.07;0.50;;;;;;;9.57;77.87;98661.06;4948686;28;103896;-62
2023/01/11 04:08:40;;;;;;;1.30;0.57;;;;;;;9.55;77.94;98655.91;4950584;28;103345;-61
2023/01/11 04:11:08;;;;;;;0.90;0.40;;;;;;;9.64;78.01;98659.69;4945736;28;102611;-63
2023/01/11 04:13:36;;;;;;;0.50;0.40;;;;;;;9.75;77.90;98663.28;4929997;28;102772;-60
2023/01/11 04:16:07;;;;;;;1.00;0.70;;;;;;;9.87;77.40;98661.59;4949585;28;103223;-62
2023/01/11 04:18:48;;;;;;;0.60;0.50;;;;;;;9.82;77.48;98653.97;4944870;28;102946;-62
2023/01/11 04:21:23;;;;;;;0.93;0.30;;;;;;;9.82;77.70;98639.97;4918442;28;102600;-63
2023/01/11 04:23:51;;;;;;;0.37;0.37;;;;;;;9.82;77.86;98653.16;4946738;28;102786;-63
2023/01/11 04:26:19;;;;;;;0.70;0.40;;;;;;;9.95;77.36;98643.41;4942712;28;104048;-63
2023/01/11 04:28:47;;;;;;;0.60;0.50;;;;;;;10.05;76.86;98643.63;4937221;28;103320;-60
2023/01/11 04:36:12;;;;;;;0.47;0.40;;;;;;;9.86;77.38;98639.63;4935163;28;103873;-63
2023/01/11 04:38:44;;;;;;;0.47;0.40;;;;;;;9.86;77.78;98644.91;4953525;28;103739;-60
2023/01/11 04:44:09;;;;;;;0.67;0.37;;;;;;;9.86;77.63;98644.91;4938488;28;102769;-63
2023/01/11 04:46:42;;;;;;;1.40;0.50;;;;;;;9.91;77.31;98648.06;4936161;28;102761;-60
2023/01/11 04:49:13;;;;;;;0.50;0.40;;;;;;;9.60;78.78;98648.50;4939767;28;104804;-62
2023/01/11 04:52:12;;;;;;;1.47;0.50;;;;;;;9.69;78.49;98642.59;4911206;28;103191;-61
2023/01/11 04:55:12;;;;;;;1.87;0.80;;;;;;;9.67;78.78;98627.81;4936637;28;102841;-62
2023/01/11 04:58:03;;;;;;;0.73;0.50;;;;;;;9.46;79.92;98626.69;4942811;28;102932;-61
2023/01/11 05:00:42;;;;;;;0.30;0.30;;;;;;;9.59;79.29;98627.53;4942950;28;103286;-60
2023/01/11 05:04:09;;;;;;;0.87;0.50;;;;;;;9.60;79.31;98635.31;4940237;28;104780;-65
2023/01/11 05:07:16;;;;;;;0.60;0.30;;;;;;;9.66;79.42;98637.53;4943421;28;103043;-64
2023/01/11 05:10:39;;;;;;;0.30;0.30;;;;;;;9.66;79.39;98641.97;4936741;28;103615;-64
2023/01/11 05:14:01;;;;;;;0.73;0.50;;;;;;;9.69;79.21;98641.75;4939843;28;102967;-64
2023/01/11 05:17:07;;;;;;;0.40;0.40;;;;;;;9.68;79.56;98633.00;4946501;28;102835;-60
2023/01/11 05:19:59;;;;;;;0.70;0.60;;;;;;;9.65;80.04;98630.59;4933177;28;102760;-61
2023/01/11 05:27:17;;;;;;;0.70;0.60;;;;;;;9.58;80.98;98624.03;4933664;28;103204;-62
2023/01/11 05:30:05;;;;;;;0.90;0.73;;;;;;;9.53;81.53;98614.75;4928810;28;103024;-63
2023/01/11 05:33:29;;;;;;;1.00;0.70;;;;;;;9.50;82.08;98615.81;4939076;28;102761;-65
2023/01/11 05:36:20;;;;;;;0.93;0.60;;;;;;;9.49;82.18;98608.03;4929714;28;103017;-61
2023/01/11 05:47:11;;;;;;;1.10;0.50;;;;;;;9.54;82.15;98625.22;4932294;28;103484;-65
2023/01/11 05:49:39;;;;;;;0.60;0.60;;;;;;;9.54;82.41;98621.72;4914304;28;102760;-65
2023/01/11 05:58:22;;;;;;;0.60;0.60;;;;;;;9.52;82.71;98607.78;4967211;28;102812;-60
2023/01/11 06:00:51;;;;;;;0.80;0.50;;;;;;;9.47;83.23;98594.94;4955157;28;103500;-60
2023/01/11 06:03:20;;;;;;;0.93;0.37;;;;;;;9.52;83.10;98590.16;4960994;28;103860;-59
2023/01/11 06:05:49;;;;;;;0.40;0.40;;;;;;;9.42;83.64;98586.50;4952709;28;103244;-60
2023/01/11 06:08:17;;;;;;;0.30;0.30;;;;;;;9.47;83.18;98589.66;4932988;28;103315;-59
2023/01/11 06:10:51;;;;;;;2.60;0.47;;;;;;;9.45;83.24;98573.09;4943079;28;104481;-59
2023/01/11 06:13:28;;;;;;;0.40;0.40;;;;;;;9.45;83.33;98565.19;4969289;28;103826;-60
2023/01/11 06:16:01;;;;;;;0.70;0.43;;;;;;;9.54;83.26;98559.28;4953046;28;103209;-60
2023/01/11 06:18:30;;;;;;;0.40;0.40;;;;;;;9.51;83.11;98558.66;4956362;28;102742;-60
2023/01/11 06:20:59;;;;;;;0.77;0.57;;;;;;;9.43;83.80;98560.97;4971464;28;103803;-59
2023/01/11 06:23:33;;;;;;;1.13;0.47;;;;;;;9.52;83.46;98557.66;4968425;28;104124;-60
2023/01/11 06:26:02;;;;;;;2.10;0.50;;;;;;;9.52;83.30;98552.41;4970845;28;104192;-60
2023/01/11 06:28:30;;;;;;;0.70;0.40;;;;;;;9.58;83.08;98558.09;4964509;28;102676;-60
2023/01/11 06:31:00;;;;;;;1.73;0.60;;;;;;;9.43;83.86;98559.16;4956864;28;104005;-59
2023/01/11 06:33:29;;;;;;;0.53;0.47;;;;;;;9.47;83.89;98558.00;4949607;28;103883;-60
2023/01/11 06:35:58;;;;;;;1.70;0.60;;;;;;;9.49;83.73;98550.00;4957776;28;103234;-59
2023/01/11 06:38:26;;;;;;;1.80;0.57;;;;;;;9.44;83.49;98552.94;4977559;28;102668;-60
2023/01/11 06:40:56;;;;;;;1.57;0.50;;;;;;;9.44;84.07;98552.94;4975963;28;104366;-60
2023/01/11 06:43:25;;;;;;;0.70;0.60;;;;;;;9.55;83.46;98550.41;4959124;28;104090;-60
2023/01/11 06:45:53;;;;;;;0.80;0.60;;;;;;;9.50;83.71;98552.53;4955359;28;104224;-59
2023/01/11 06:48:23;;;;;;;0.97;0.83;;;;;;;9.47;84.36;98550.09;4980734;28;102582;-60
2023/01/11 06:50:53;;;;;;;0.77;0.57;;;;;;;9.57;83.83;98552.94;4980154;28;103058;-60
2023/01/11 06:53:22;;;;;;;0.77;0.60;;;;;;;9.53;84.20;98549.66;4970797;28;103252;-60
2023/01/11 06:55:53;;;;;;;0.90;0.63;;;;;;;9.63;83.87;98550.69;4974159;28;103398;-60
2023/01/11 06:58:22;;;;;;;2.20;0.57;;;;;;;9.64;83.87;98555.03;4983527;28;102745;-60
2023/01/11 07:00:51;;;;;;;0.87;0.63;;;;;;;9.64;83.44;98557.66;4983147;28;104299;-60
2023/01/11 07:03:22;;;;;;;1.70;0.73;;;;;;;9.72;83.23;98571.16;4996058;28;103974;-60
2023/01/11 07:05:53;;;;;;;0.57;0.50;;;;;;;9.82;82.61;98564.25;5001418;28;102996;-60
2023/01/11 07:08:20;;;;;;;1.10;0.53;;;;;;;9.82;82.65;98566.91;4981870;28;102763;-59
2023/01/11 07:10:48;;;;;;;0.87;0.60;;;;;;;9.81;82.60;98551.19;4978795;28;103257;-60
2023/01/11 07:13:16;;;;;;;0.87;0.70;;;;;;;9.71;82.77;98548.34;5002731;28;104678;-60
2023/01/11 07:15:49;;;;;;;0.40;0.40;;;;;;;9.80;82.70;98539.78;5002377;28;103200;-60
2023/01/11 07:18:18;;;;;;;1.37;0.50;;;;;;;9.73;83.02;98543.84;4982249;28;103004;-60
2023/01/11 07:20:47;;;;;;;1.03;0.60;;;;;;;9.78;82.92;98546.13;5003109;28;102834;-60
2023/01/11 07:23:18;;;;;;;0.97;0.80;;;;;;;9.86;82.45;98538.50;5000445;28;103668;-60
2023/01/11 07:25:48;;;;;;;0.97;0.63;;;;;;;9.83;82.62;98534.28;5002597;28;103218;-60
2023/01/11 07:28:16;;;;;;;0.87;0.60;;;;;;;9.93;82.30;98533.66;5001630;28;102659;-60
2023/01/11 07:30:44;;;;;;;1.30;0.50;;;;;;;9.98;82.09;98536.78;5003034;28;102662;-60
2023/01/11 07:33:28;;;;;;;1.80;0.80;;;;;;;9.94;82.17;98540.63;5003181;28;103248;-60
2023/01/11 07:35:59;;;;;;;0.73;0.50;;;;;;;9.97;82.42;98543.84;4985152;28;103060;-60
2023/01/11 07:38:28;;;;;;;1.57;0.60;;;;;;;10.10;81.57;98541.19;5003747;28;102950;-60
2023/01/11 07:40:56;;;;;;;0.50;0.50;;;;;;;10.13;81.20;98541.84;5001300;28;103687;-60
2023/01/11 07:43:23;;;;;;;0.57;0.50;;;;;;;10.16;81.33;98541.59;5000495;28;103260;-60
2023/01/11 07:45:52;;;;;;;0.60;0.60;;;;;;;10.21;81.40;98544.75;5004863;28;103028;-60
2023/01/11 07:48:25;;;;;;;0.57;0.57;;;;;;;10.13;81.82;98546.28;4999309;28;103072;-60
2023/01/11 07:50:54;;;;;;;1.03;0.73;;;;;;;10.20;81.29;98550.13;5001825;28;102646;-60
2023/01/11 07:53:25;;;;;;;0.60;0.57;;;;;;;10.33;80.82;98549.13;4999458;28;103311;-60
2023/01/11 07:55:54;;;;;;;0.87;0.60;;;;;;;10.35;80.80;98541.09;4999597;28;103575;-60
2023/01/11 07:58:23;;;;;;;1.30;0.70;;;;;;;10.45;80.53;98536.81;4980787;28;102732;-60
2023/01/11 08:00:51;;;;;;;0.73;0.63;;;;;;;10.61;79.64;98547.91;5001125;28;104340;-60
2023/01/11 08:03:19;;;;;;;1.70;0.53;;;;;;;10.60;79.56;98538.31;4996611;28;103385;-60
2023/01/11 08:05:50;;;;;;;0.70;0.57;;;;;;;10.54;80.02;98546.72;5001286;28;103180;-60
2023/01/11 08:08:18;;;;;;;0.87;0.60;;;;;;;10.53;80.23;98542.38;4997864;28;102608;-60
2023/01/11 08:10:46;;;;;;;0.77;0.77;;;;;;;10.66;79.45;98535.22;4981795;28;102806;-62
2023/01/11 08:16:06;;;;;;;1.80;0.50;;;;;;;10.70;79.60;98536.66;4939085;28;103270;-60
2023/01/11 08:18:34;;;;;;;1.00;0.73;;;;;;;10.66;79.59;98548.44;5001723;28;102589;-60
2023/01/11 08:21:03;;;;;;;0.53;0.50;;;;;;;10.72;79.36;98549.78;4984907;28;102770;-60
2023/01/11 08:23:31;;;;;;;1.50;0.67;;;;;;;10.72;79.56;98547.13;5001137;28;103307;-60
2023/01/11 08:25:59;;;;;;;0.80;0.60;;;;;;;10.63;79.40;98558.38;4996089;28;103364;-60
2023/01/11 08:28:28;;;;;;;0.97;0.50;;;;;;;10.79;79.02;98551.00;4998926;28;102794;-60
2023/01/11 08:30:56;;;;;;;0.70;0.50;;;;;;;10.75;78.95;98545.09;5003110;28;103678;-60
2023/01/11 08:33:24;;;;;;;0.80;0.80;;;;;;;10.76;79.05;98541.50;4997266;28;104637;-60
2023/01/11 08:35:53;;;;;;;2.33;0.70;;;;;;;10.73;79.50;98546.16;5000806;28;103229;-60
2023/01/11 08:38:21;;;;;;;3.20;0.80;;;;;;;10.78;79.09;98544.84;4996934;28;103179;-60
2023/01/11 08:40:49;;;;;;;2.10;1.00;;;;;;;10.71;79.44;98537.50;4991414;28;102696;-60
2023/01/11 08:43:17;;;;;;;1.07;0.80;;;;;;;10.61;79.96;98537.34;4999483;28;103731;-60
2023/01/11 08:45:47;;;;;;;2.27;1.10;;;;;;;10.70;79.48;98536.66;4999755;28;104219;-60
2023/01/11 08:48:15;;;;;;;1.70;0.73;;;;;;;10.72;79.18;98542.66;4985204;28;102666;-60
2023/01/11 08:50:44;;;;;;;1.00;0.80;;;;;;;10.67;79.51;98538.69;5001292;28;102750;-60
2023/01/11 08:53:12;;;;;;;3.20;0.77;;;;;;;10.71;79.33;98551.56;5001789;28;103988;-60
2023/01/11 08:55:43;;;;;;;1.20;0.67;;;;;;;10.81;78.97;98544.63;4995761;28;103201;-60
2023/01/11 08:58:11;;;;;;;2.27;0.80;;;;;;;10.76;79.36;98548.56;4981234;28;102694;-60
2023/01/11 09:00:39;;;;;;;2.20;1.00;;;;;;;10.81;79.16;98547.25;5002723;28;102599;-62
2023/01/11 09:03:10;;;;;;;1.00;0.73;;;;;;;10.79;79.40;98545.69;5000769;28;103805;-60
2023/01/11 09:05:39;;;;;;;1.93;1.10;;;;;;;10.80;79.53;98537.69;4993548;28;103200;-60
2023/01/11 09:08:08;;;;;;;0.90;0.60;;;;;;;10.87;79.47;98546.81;4998466;28;103050;-60
2023/01/11 09:10:36;;;;;;;3.07;0.80;;;;;;;10.95;78.97;98541.78;4998232;28;103895;-60
2023/01/11 09:13:04;;;;;;;0.90;0.70;;;;;;;11.00;79.15;98542.25;4983346;28;104126;-60
2023/01/11 09:15:32;;;;;;;0.60;0.60;;;;;;;11.06;78.81;98539.16;4998672;28;103316;-60
2023/01/11 09:18:04;;;;;;;0.87;0.70;;;;;;;11.03;79.07;98538.56;4997293;28;103003;-62
2023/01/11 09:20:33;;;;;;;1.00;0.83;;;;;;;11.12;78.78;98537.84;4999474;28;104061;-62
2023/01/11 09:23:01;;;;;;;1.60;0.87;;;;;;;11.33;78.16;98536.19;4999536;28;103295;-62
2023/01/11 09:25:29;;;;;;;3.23;0.80;;;;;;;11.27;78.28;98538.47;5000260;28;103316;-62
2023/01/11 09:27:57;;;;;;;1.40;0.80;;;;;;;11.25;78.31;98533.31;5001513;28;102626;-63
2023/01/11 09:30:25;;;;;;;0.60;0.57;;;;;;;11.33;78.29;98533.56;5002406;28;103524;-62
2023/01/11 09:32:53;;;;;;;1.70;0.63;;;;;;;11.43;77.52;98531.88;5000698;28;104124;-62
2023/01/11 09:35:22;;;;;;;1.83;0.60;;;;;;;11.45;77.49;98532.56;5000563;28;103418;-62
2023/01/11 09:37:56;;;;;;;1.70;1.03;;;;;;;11.48;77.54;98534.97;4983677;28;102737;-62
2023/01/11 09:40:38;;;;;;;1.23;0.80;;;;;;;11.53;77.26;98537.28;5001997;28;103386;-62
2023/01/11 09:43:10;;;;;;;1.07;0.80;;;;;;;11.59;76.85;98531.50;4996380;28;103335;-62
2023/01/11 09:45:45;;;;;;;0.83;0.70;;;;;;;11.60;76.78;98533.19;5000229;28;103256;-60
2023/01/11 09:48:27;;;;;;;1.00;0.80;;;;;;;11.56;77.12;98535.22;4994654;28;103064;-60
2023/01/11 09:50:56;;;;;;;1.07;0.83;;;;;;;11.61;77.01;98537.53;4995350;28;103600;-62
2023/01/11 09:53:35;;;;;;;1.00;0.60;;;;;;;11.61;76.77;98540.16;4997082;28;105006;-62
2023/01/11 09:56:07;;;;;;;0.77;0.70;;;;;;;11.55;76.79;98535.34;4998678;28;104236;-62
2023/01/11 09:58:48;;;;;;;1.67;0.60;;;;;;;11.64;76.48;98537.28;4999991;28;102686;-60
2023/01/11 10:01:22;;;;;;;2.47;0.90;;;;;;;11.58;76.40;98524.53;4998375;28;103881;-60
2023/01/11 10:04:20;;;;;;;1.17;0.80;;;;;;;11.74;75.91;98535.59;4962236;28;103232;-62
2023/01/11 10:07:10;;;;;;;1.00;0.87;;;;;;;11.69;75.97;98527.19;4978256;28;103258;-62
2023/01/11 10:09:51;;;;;;;1.47;1.33;;;;;;;11.76;75.72;98525.72;4974301;28;102656;-60
2023/01/11 10:12:47;;;;;;;0.80;0.80;;;;;;;11.83;75.73;98520.81;4980023;28;102892;-60
2023/01/11 10:15:41;;;;;;;1.27;0.80;;;;;;;11.70;76.03;98523.59;4976620;28;103309;-60
2023/01/11 10:18:54;;;;;;;0.60;0.60;;;;;;;11.69;75.97;98524.56;4974628;28;104658;-62
2023/01/11 10:21:48;;;;;;;2.23;0.90;;;;;;;11.78;75.78;98515.88;4980797;28;103024;-60
2023/01/11 10:24:24;;;;;;;0.97;0.70;;;;;;;11.87;75.45;98522.25;4982948;28;103516;-60
2023/01/11 10:27:02;;;;;;;2.20;0.93;;;;;;;11.84;75.57;98519.84;4964237;28;104305;-62
2023/01/11 10:30:07;;;;;;;0.57;0.57;;;;;;;11.88;75.56;98515.97;4976546;28;103292;-62
2023/01/11 10:33:05;;;;;;;1.23;0.70;;;;;;;11.91;75.82;98524.50;4975342;28;102754;-60
2023/01/11 10:36:01;;;;;;;1.00;0.80;;;;;;;11.95;75.41;98520.69;4979673;28;102679;-62
2023/01/11 10:38:53;;;;;;;1.33;0.97;;;;;;;12.02;75.54;98513.91;4983278;28;104110;-62
2023/01/11 10:41:32;;;;;;;0.60;0.50;;;;;;;12.01;75.35;98517.50;4981834;28;104003;-60
2023/01/11 10:44:17;;;;;;;1.20;0.90;;;;;;;12.15;75.15;98509.28;4979044;28;102638;-62
2023/01/11 10:46:50;;;;;;;0.80;0.63;;;;;;;12.08;75.31;98510.75;4972172;28;103845;-60
2023/01/11 10:49:45;;;;;;;0.77;0.53;;;;;;;11.95;75.80;98512.72;4982898;28;103381;-60
2023/01/11 10:52:40;;;;;;;1.37;0.60;;;;;;;11.97;75.95;98513.44;4979562;28;103191;-62
2023/01/11 10:55:12;;;;;;;0.93;0.60;;;;;;;12.10;75.95;98511.47;4950804;28;102985;-63
2023/01/11 10:57:55;;;;;;;1.20;0.70;;;;;;;12.05;76.45;98505.72;4974376;28;102914;-62
2023/01/11 11:00:42;;;;;;;1.27;0.77;;;;;;;12.09;77.02;98515.09;4983982;28;103976;-63
2023/01/11 11:03:48;;;;;;;0.97;0.67;;;;;;;11.92;77.55;98510.31;4976897;28;104226;-62
2023/01/11 11:06:27;;;;;;;1.00;0.60;;;;;;;12.02;77.00;98505.97;4997448;28;102653;-62
2023/01/11 11:09:03;;;;;;;0.70;0.63;;;;;;;12.01;77.07;98506.91;4983182;28;103672;-62
2023/01/11 11:11:38;;;;;;;2.63;0.60;;;;;;;12.14;76.94;98507.63;5002132;28;103661;-62
2023/01/11 11:14:15;;;;;;;0.70;0.70;;;;;;;12.05;77.08;98503.06;5002110;28;103196;-62
2023/01/11 11:16:58;;;;;;;3.00;0.93;;;;;;;12.11;77.54;98502.56;5001713;28;103483;-63
2023/01/11 11:19:32;;;;;;;0.90;0.70;;;;;;;12.18;77.68;98500.28;4996563;28;103593;-62
2023/01/11 11:22:00;;;;;;;1.10;0.70;;;;;;;12.23;77.47;98505.19;5002767;28;104136;-62
2023/01/11 11:24:35;;;;;;;1.07;0.80;;;;;;;12.11;77.60;98491.97;5000120;28;103175;-63
2023/01/11 11:27:14;;;;;;;0.77;0.70;;;;;;;12.18;77.34;98495.78;5003317;28;102695;-62
2023/01/11 11:29:48;;;;;;;1.67;1.00;;;;;;;12.23;77.53;98497.22;5000141;28;102636;-62
2023/01/11 11:32:27;;;;;;;0.60;0.60;;;;;;;12.13;78.13;98490.03;4996292;28;103487;-62
2023/01/11 11:34:56;;;;;;;2.37;0.70;;;;;;;12.19;77.88;98497.47;4995176;28;102994;-62
2023/01/11 11:37:27;;;;;;;0.60;0.60;;;;;;;12.26;78.09;98487.25;5001873;28;102769;-62
2023/01/11 11:39:56;;;;;;;1.20;0.80;;;;;;;12.37;77.52;98481.03;4983158;28;102847;-62
2023/01/11 11:42:25;;;;;;;1.67;0.70;;;;;;;12.29;77.98;98487.00;4996357;28;103041;-62
2023/01/11 11:45:16;;;;;;;1.00;0.73;;;;;;;12.28;78.02;98482.66;4999862;28;103219;-63
2023/01/11 11:48:01;;;;;;;1.20;0.90;;;;;;;12.38;78.05;98483.56;4999374;28;102696;-62
2023/01/11 11:50:29;;;;;;;0.70;0.70;;;;;;;12.47;78.03;98480.16;4976202;28;102827;-62
2023/01/11 11:53:25;;;;;;;1.40;0.90;;;;;;;12.61;78.04;98479.00;4999239;28;103456;-62
2023/01/11 11:55:54;;;;;;;0.80;0.67;;;;;;;12.46;78.88;98481.09;4995974;28;103210;-63
2023/01/11 11:58:25;;;;;;;1.37;0.70;;;;;;;12.23;80.27;98478.69;4999620;28;102910;-62
2023/01/11 12:00:54;;;;;;;0.60;0.60;;;;;;;12.35;80.17;98472.41;4998522;28;103065;-62
2023/01/11 12:03:29;;;;;;;1.47;0.93;;;;;;;12.36;80.66;98477.56;5001174;28;104547;-64
2023/01/11 12:06:00;;;;;;;0.90;0.60;;;;;;;12.14;81.06;98475.84;4992929;28;103043;-64
2023/01/11 12:08:31;;;;;;;2.17;1.00;;;;;;;12.19;81.59;98472.81;5001846;28;102636;-64
2023/01/11 12:11:02;;;;;;;0.70;0.60;;;;;;;12.23;81.95;98476.91;5001699;28;102799;-62
2023/01/11 12:13:34;;;;;;;1.23;0.80;;;;;;;12.44;81.32;98479.56;4989476;28;103077;-62
2023/01/11 12:16:04;;;;;;;1.33;0.73;;;;;;;12.28;81.79;98465.91;4975782;28;103873;-63
2023/01/11 12:18:41;;;;;;;2.13;0.70;;;;;;;12.30;81.96;98467.47;4994788;28;102755;-62
2023/01/11 12:21:21;;;;;;;2.43;0.77;;;;;;;12.23;82.59;98473.41;4997073;28;102596;-62
2023/01/11 12:24:09;;;;;;;1.17;0.70;;;;;;;12.28;83.07;98477.34;4996358;28;103870;-63
2023/01/11 12:26:47;;;;;;;0.73;0.67;;;;;;;11.98;84.31;98470.13;4999772;28;103204;-61
2023/01/11 12:29:29;;;;;;;1.27;0.50;;;;;;;12.02;84.60;98471.53;4995376;28;102703;-61
2023/01/11 12:32:22;;;;;;;1.73;0.80;;;;;;;12.09;84.39;98466.59;4994828;28;104078;-61
2023/01/11 12:35:13;;;;;;;0.93;0.80;;;;;;;12.06;84.83;98467.69;4996018;28;103063;-61
2023/01/11 12:38:08;;;;;;;1.03;0.63;;;;;;;12.24;83.69;98467.97;4999764;28;103208;-60
2023/01/11 12:40:43;;;;;;;0.93;0.70;;;;;;;12.28;84.06;98465.91;4998008;28;102614;-61
2023/01/11 12:43:36;;;;;;;0.97;0.80;;;;;;;12.41;83.99;98475.34;4996976;28;103641;-61
2023/01/11 12:46:15;;;;;;;0.80;0.80;;;;;;;12.37;84.10;98462.50;4995715;28;103439;-61
2023/01/11 12:48:57;;;;;;;1.00;0.80;;;;;;;12.34;84.68;98470.69;4993444;28;103165;-61
2023/01/11 12:51:47;;;;;;;1.27;0.70;;;;;;;12.38;85.12;98469.50;4994753;28;102754;-61
2023/01/11 12:54:32;;;;;;;1.33;0.87;;;;;;;12.33;85.22;98469.00;4967821;28;104305;-61